Ride Results

Gulgong (04-09-2005)
Ride distance: 80.0 km

Outcomes - Gulgong (04-09-2005)
Division No. of Entries Retired / DNE Completed Withdrawn Ineligible V/O Percentage Completed
HW 19 - 13 2 - 4 68.42%
MW 42 - 40 1 - 1 95.24%
LW 19 - 15 1 - 3 78.95%
JN 8 - 8 - - - 100.00%
Totals 88 - 76 4 - 8 86.36%
Results - Gulgong (04-09-2005)
No. Rider Horse Place Time Leg Speeds Total
Km/Hr
H/R bpm
Heavyweight
165 Neil Clarkson Espirit Sherwood 1 4:53:00 19.0, 14.3 16.38 34, 48, 44 (Avg:46)
154 Rod Mitchell Aloha Naja 2 (BC) 5:53:00 15.9, 11.8 13.60 32, 38, 44 (Avg:41)
163 Wayne Johnson Karlotta 3 6:00:00 17.2, 10.8 13.33 42, 46, 48 (Avg:47)
162 Allan Watts Erin Park New Moon 4 6:05:00 13.3, 12.9 13.15 38, 42, 52 (Avg:47)
157 Frank Mollema A'Landell Image 5 6:26:00 13.3, 11.6 12.44 40, 44, 44 (Avg:44)
152 Leanne Le Claire Arika Baie 6 6:35:00 12.5, 11.7 12.15 34, 37, 46 (Avg:41)
168 Damien Bonham Box Hill Jezabel 7 6:48:00 12.3, 11.2 11.76 44, 40, 48 (Avg:44)
155 Craig Pinkney Koru Tamagin 8 6:49:00 12.9, 10.7 11.74 44, 44, 52 (Avg:48)
151 Greg Moore Parkview Armageddon 9 6:58:00 13.3, 10.0 11.48 38, 44, 44 (Avg:44)
166 Virginia Blain Karabil Enna 10 7:22:00 12.6, 9.5 10.86 34, 44, 50 (Avg:47)
164 Robin Jones Cant'e Tinza 11 7:41:00 12.5, 8.8 10.41 45, 46, 56 (Avg:51)
167 Ken Sandford Abrock Shadow 12 8:05:00 11.5, 8.6 9.90 37, 40, 56 (Avg:48)
156 Gavin Groth Rowallan Rising Sun 13 8:24:00 9.9, 9.0 9.52 40, 44, 52 (Avg:48)
169 Allan Caslick Grelisa Park Semawi Shaklan Lame L2 0:00:00 11.0, 8.6 - 44, 46, 57 (Avg:51)
158 Len Derkacz Torryburn Rahal Lame L2 0:00:00 17.2, 10.8 - 40, 48, 57 (Avg:52)
160 Colin Edwards Sundeck Eden Withdrawn L1 0:00:00 - - 40, 39 (Avg:39)
153 Bern Harvey Velona Sinttara Lame L1 0:00:00 12.5 - 38, 44 (Avg:44)
161 Raymond Smith Stilton Farm Portia Lame L1 0:00:00 14.7 - 40, 0 (Avg:0)
159 Con Bouzianis Conderosa Sovuryn Withdrawn P/R 0:00:00 - - 40
Middleweight
113 Emma McMurrich Nihal City Extra 1 (BC) 3:49:00 23.7, 18.7 20.96 36, 46, 49 (Avg:47)
106 Daphne Phillips Bachelor Boy 2 4:31:00 22.2, 14.7 17.71 38, 46, 49 (Avg:47)
144 Mark Harvey Judstan Sharwayn 3 4:52:00 18.8, 14.5 16.44 40, 51, 46 (Avg:48)
124 Peter Kelly Wollumbin Faiz 4 5:01:00 16.4, 15.4 15.95 41, 39, 44 (Avg:41)
103 Renee Kirk Rowallan Ramada 4 5:01:00 18.6, 13.9 15.95 38, 50, 59 (Avg:54)
117 Jas Crafter Aussie Delight 6 5:03:00 18.6, 13.7 15.84 36, 49, 48 (Avg:48)
115 Marita Rifai Premium 7 5:10:00 19.1, 12.9 15.48 36, 44, 48 (Avg:46)
107 Garry Bennett Attalah Shazmar 8 5:13:00 18.4, 13.1 15.34 0, 46, 52 (Avg:49)
112 Brian Norton Gusunder 8 5:13:00 16.5, 14.2 15.34 35, 41, 48 (Avg:44)
114 Emma Fletcher Mahazin Khomet 10 5:44:00 14.6, 13.3 13.95 34, 43, 48 (Avg:45)
102 Susan Pritchard Cherox Aldaniti 11 5:53:00 17.0, 11.3 13.60 38, 46, 48 (Avg:47)
127 Felicity Baird Raymar Sabah 12 6:02:00 13.2, 13.2 13.26 36, 40, 48 (Avg:44)
120 Liesl Baumann Islam Seraphin 13 6:17:00 13.3, 12.1 12.73 35, 44, 46 (Avg:45)
118 Cassandra Little Lynbrook Liesel 13 6:17:00 13.2, 12.2 12.73 40, 42, 46 (Avg:44)
111 Lauren Mitchell Rusty 15 6:19:00 15.3, 10.7 12.66 38, 44, 48 (Avg:46)
126 Darryl King Wimsey Joshua 16 6:30:00 15.4, 10.2 12.31 30, 35, 50 (Avg:42)
125 Barry Price Tarros Mistque 16 6:30:00 15.4, 10.2 12.31 36, 51, 48 (Avg:49)
105 Karla Circosta Hideaway Farm Danton 18 6:35:00 12.5, 11.7 12.15 36, 44, 40 (Avg:42)
104 Rosemary Stocks Shatari 18 6:35:00 12.5, 11.7 12.15 38, 41, 48 (Avg:44)
116 Kylee Heslop Cudgelbar Stormy 20 6:40:00 13.2, 10.9 12.00 60, 41, 44 (Avg:42)
122 Melissa Oborn Cyclone 21 6:46:00 12.9, 10.8 11.82 36, 42, 44 (Avg:43)
121 Donna Tidswell State Secret 21 6:46:00 12.9, 10.8 11.82 38, 46, 50 (Avg:48)
134 Sonia Bonham Box Hill Glider 23 6:48:00 12.3, 11.2 11.76 38, 45, 48 (Avg:46)
101 Garry Weis Jazz-mann Fame Dancer 24 6:58:00 13.3, 10.0 11.48 40, 44, 56 (Avg:50)
108 Amanda Allen Leechdale Prince Shazzam 25 7:08:00 12.9, 9.8 11.21 36, 42, 42 (Avg:42)
130 Margaret Boland A'Landell Karlinta 26 7:18:00 12.6, 9.6 10.96 40, 50, 52 (Avg:51)
129 Gaye Kerr Macquarie Park Silver Angel 26 7:18:00 12.6, 9.6 10.96 40, 41, 42 (Avg:41)
131 Allana Rempel Claremont Park Breanne 26 7:18:00 12.5, 9.7 10.96 32, 42, 48 (Avg:45)
110 Wendy Ingle Koppa 29 7:25:00 13.3, 9.0 10.79 42, 50, 42 (Avg:46)
137 Tracy Haack Sinbad 30 7:29:00 12.6, 9.2 10.69 37, 44, 44 (Avg:44)
140 Mary Hollingsworth Dante 31 7:30:00 12.5, 9.2 10.67 40, 42, 48 (Avg:45)
136 Marty Gregson Aloha Kaiser 32 7:32:00 12.1, 9.4 10.62 36, 32, 36 (Avg:34)
109 Lillian Maxwell Clarendon Shiraz 32 7:32:00 12.4, 9.2 10.62 34, 36, 42 (Avg:39)
119 Bernice King Doralmir Park Nicholas 34 7:34:00 12.7, 9.0 10.57 35, 44, 50 (Avg:47)
139 Bob Howden Pindari Park Rahal 35 7:35:00 11.5, 9.7 10.55 40, 49, 52 (Avg:50)
133 Jenny Sandford Abrock Nicodemus 36 8:05:00 11.5, 8.6 9.90 34, 40, 44 (Avg:42)
143 Ben Caslick A'Landell Intent 37 8:15:00 11.0, 8.6 9.70 44, 51, 44 (Avg:47)
135 Susan Luthy Eljannah Majid 38 8:16:00 12.1, 8.0 9.68 40, 44, 44 (Avg:44)
123 Rhiannon Groth Abrock Christopher 39 8:24:00 9.9, 9.0 9.52 34, 40, 48 (Avg:44)
141 Allison Knihinicki Naz-ton Crystal Teardrop 40 8:40:00 9.3, 9.0 9.23 39, 48, 52 (Avg:50)
128 Glen Hewett Innesview Cadet Withdrawn L1 0:00:00 - - 35, 40 (Avg:40)
142 Shan Symons Hazeldean Essla Lame L1 0:00:00 11.0 - 40, 40 (Avg:40)
Lightweight
58 Brad Dillon Ebonglen Holmegaard 1 (BC) 3:49:00 23.9, 18.6 20.96 38, 46, 47 (Avg:46)
57 Neroli Mitchell- Cooper Bilbo 2 5:01:00 18.6, 13.9 15.95 33, 45, 48 (Avg:46)
51 Sara Beckinsale Taabu 3 5:10:00 16.5, 14.5 15.48 36, 48, 50 (Avg:49)
61 Dianne Luker Razorback Reflection 3 5:10:00 16.5, 14.5 15.48 40, 44, 44 (Avg:44)
53 Linda Logan Follydown Topaz 5 6:19:00 15.9, 10.4 12.66 36, 50, 52 (Avg:51)
55 Jessica Taylor Gandari Alva Caasteele 6 6:46:00 12.9, 10.8 11.82 40, 48, 52 (Avg:50)
60 Katrina Bodewes Shahraki 7 7:08:00 13.1, 9.7 11.21 56, 50, 58 (Avg:54)
63 Jan Wade Oakey Dokey 7 7:08:00 14.0, 9.3 11.21 36, 48, 54 (Avg:51)
69 Sonya Nicholls Worobil Koradji 9 7:22:00 12.6, 9.5 10.86 0, 44, 42 (Avg:43)
67 Kim Boyland Shamar Sovereign Gold 10 7:33:00 11.5, 9.7 10.60 48, 52, 58 (Avg:55)
71 Carol Layton Leshal Ikon 11 7:35:00 11.5, 9.7 10.55 36, 36, 44 (Avg:40)
66 Kate Pilley Pancho 12 8:24:00 9.9, 9.0 9.52 36, 40, 44 (Avg:42)
59 Christopher Sultana Fairymount Izabella 12 8:24:00 9.9, 9.0 9.52 36, 48, 52 (Avg:50)
62 Pam Markham Yoffie 14 8:28:00 10.5, 8.5 9.45 54, 43, 56 (Avg:49)
65 Jenny Vandervelden Mindari High Flyer 14 8:28:00 10.5, 8.5 9.45 35, 44, 44 (Avg:44)
64 Greta D'Cruz Coonong Bey Taylor Withdrawn L1 0:00:00 - - 46, 46 (Avg:46)
54 Abby McMurrich Nyora Veleta Lame L1 0:00:00 14.0 - 36, 40 (Avg:40)
56 Megan O'Connor Cudglebar Gold Lame L1 0:00:00 14.4 - 31, 48 (Avg:48)
70 Sue Todd Shamara Lame L1 0:00:00 16.5 - 37, 44 (Avg:44)
Junior
203 Zoe Locke Howard Park Zdansk 1 (BC) 3:49:00 23.9, 18.6 20.96 38, 41, 40 (Avg:40)
204 Brooke Campbell Churinga J'amee 2 6:26:00 13.3, 11.6 12.44 48, 39, 48 (Avg:43)
205 Jamie Mollema Billywillinga Rocky 2 6:26:00 13.3, 11.6 12.44 44, 36, 40 (Avg:38)
201 Sharna Harvey Binks 4 6:40:00 12.5, 11.4 12.00 36, 44, 52 (Avg:48)
202 Rachael Hartas Rex 5 7:25:00 12.4, 9.5 10.79 29, 40, 50 (Avg:45)
209 Allix Jones Kayali Faras 6 8:15:00 11.0, 8.6 9.70 46, 48, 52 (Avg:50)
208 Christie Chapman Tuldar Desert Falcon 7 8:40:00 9.3, 9.0 9.23 42, 36, 48 (Avg:42)
207 Brianna Webb Tuldar Ronnie 7 8:40:00 9.3, 9.0 9.23 38, 48, 52 (Avg:50)